LIBQ  Monte Scuro  Airport

Italy

Add Bookmark
ICAO LIBQ
Type Airport
Status Operational
Latitude
39° 19' 12" N
39.320000
Longitude
16° 22' 47" E
16.380000
Local (DST + 2) UTC (GMT + 1)
Jul 6, 2015 11:21 Jul 6, 2015 09:21
Sunrise-Sunset Local UTC
Begin Civil Twilight 05:00 03:00
Sunrise 05:32 03:32
Sunset 08:25 18:25
End Civil Twilight 08:57 18:57
VFR
VFR
MVFR
MVFR
IFR
IFR
LIFR
LIFR
Unknown
Unavailable

Current Weather

METAR Observed VFR
LIBQ 060855Z 00000KT CAVOK 18/10 Q1023 Mon, Jul 6, 2015 @ 08:55 UTC
(26 Minutes ago)
Visual Flight Rules
Wind Visibility Conditions
Calm 10 km or more
  • No significant weather
Temperatures Readings Precipitation
Current Temp
18°C
64°F
Dewpoint
10°C
50°F
Humidity 60%
Altimeter 30.21" Hg
Sea Level Pressure 1,023 mb
Field Elevation
1,720 m
5,643 ft
None Recorded

Additional weather within a 92.6km radius of LIBQ

Map ICAO Location
LICA 47.6km S/SW (195°)
LIBC 70.2km E/SE (121°)
VFR
VFR
MVFR
MVFR
IFR
IFR
LIFR
LIFR
Unknown
Unavailable
-
-

CheckWX.com is intended as a tool to help pilots better visualize weather data. It is not intended as a substitute for an official weather briefing obtained from a Flight Service Station. CheckWX.com does not meet the FAA requirements for an official pre-flight weather briefing. Therefore, it's important that pilots still call and obtain an official FSS pre-flight weather briefing.

© 2007-2015 CheckWX.com
09:21:38 UTC